Time;durP1;ratioP1;P1;durP2;ratioP2;P2;SDS_P1;SDS_P2;PMS_P1;PMS_P2;Temp;Humidity;BMP_temperature;BMP_pressure;BME280_temperature;BME280_humidity;BME280_pressure;Samples;Min_cycle;Max_cycle;Signal;HPM_P1;HPM_P2
2023/09/10 00:01:18;;;;;;;14.23;12.82;;;18.60;99.90;;;;;;4969572;28;20023;-53
2023/09/10 00:03:44;;;;;;;15.18;13.77;;;18.60;99.90;;;;;;4968575;28;20054;-54
2023/09/10 00:06:10;;;;;;;15.02;13.43;;;18.70;99.90;;;;;;4968255;28;20170;-54
2023/09/10 00:08:35;;;;;;;20.42;15.27;;;18.70;99.90;;;;;;4966340;28;20033;-55
2023/09/10 00:11:02;;;;;;;17.67;15.90;;;18.70;99.90;;;;;;4969749;28;20104;-55
2023/09/10 00:13:28;;;;;;;16.10;14.50;;;18.70;99.90;;;;;;4964176;28;20030;-53
2023/09/10 00:15:54;;;;;;;14.55;12.80;;;18.70;99.90;;;;;;4969329;28;20031;-53
2023/09/10 00:18:21;;;;;;;13.30;11.93;;;18.70;99.90;;;;;;4969984;28;20402;-52
2023/09/10 00:20:47;;;;;;;14.05;12.52;;;18.70;99.90;;;;;;4969791;28;20074;-55
2023/09/10 00:23:13;;;;;;;13.02;11.77;;;18.70;99.90;;;;;;4969686;28;20042;-53
2023/09/10 00:25:39;;;;;;;15.98;14.35;;;18.60;99.90;;;;;;4966179;28;20027;-54
2023/09/10 00:28:05;;;;;;;16.08;14.40;;;18.60;99.90;;;;;;4967597;28;20106;-54
2023/09/10 00:30:30;;;;;;;15.95;13.80;;;18.60;99.90;;;;;;4967369;28;20086;-51
2023/09/10 00:32:56;;;;;;;15.70;14.10;;;18.60;99.90;;;;;;4976994;28;20023;-50
2023/09/10 00:35:22;;;;;;;17.05;15.25;;;18.60;99.90;;;;;;4968948;28;20397;-53
2023/09/10 00:37:47;;;;;;;18.50;16.60;;;18.60;99.90;;;;;;4969180;28;20014;-58
2023/09/10 00:40:14;;;;;;;20.17;18.10;;;18.60;99.90;;;;;;4968686;28;20033;-52
2023/09/10 00:42:40;;;;;;;21.40;19.13;;;18.60;99.90;;;;;;4968482;28;20277;-51
2023/09/10 00:45:10;;;;;;;23.60;20.50;;;18.60;99.90;;;;;;4966680;28;20023;-51
2023/09/10 00:47:40;;;;;;;20.45;18.23;;;18.70;99.90;;;;;;4966195;28;20031;-55
2023/09/10 00:50:09;;;;;;;23.05;20.45;;;18.70;99.90;;;;;;4962703;28;20022;-54
2023/09/10 00:52:36;;;;;;;22.45;20.05;;;18.70;99.90;;;;;;4965708;28;20033;-53
2023/09/10 00:55:02;;;;;;;21.20;19.05;;;18.70;99.90;;;;;;4967465;28;20031;-53
2023/09/10 00:57:27;;;;;;;19.98;17.65;;;18.70;99.90;;;;;;4969140;28;20121;-50
2023/09/10 00:59:53;;;;;;;19.35;17.38;;;18.70;99.90;;;;;;4965975;28;20114;-52
2023/09/10 01:02:20;;;;;;;21.67;19.42;;;18.70;99.90;;;;;;4966563;28;20130;-51
2023/09/10 01:04:45;;;;;;;22.98;20.50;;;18.70;99.90;;;;;;4966769;28;20031;-50
2023/09/10 01:07:11;;;;;;;24.13;21.27;;;18.70;99.90;;;;;;4967432;28;20037;-51
2023/09/10 01:09:36;;;;;;;19.27;17.38;;;18.70;99.90;;;;;;4966390;28;20571;-53
2023/09/10 01:12:17;;;;;;;20.70;17.52;;;18.70;99.90;;;;;;4968766;28;20482;-54
2023/09/10 01:14:54;;;;;;;18.02;16.30;;;18.70;99.90;;;;;;4967974;28;20025;-56
2023/09/10 01:17:37;;;;;;;18.77;16.48;;;18.60;99.90;;;;;;4968497;28;20027;-53
2023/09/10 01:20:23;;;;;;;17.65;15.82;;;18.60;99.90;;;;;;4963895;28;20101;-53
2023/09/10 01:22:57;;;;;;;21.02;18.67;;;18.60;99.90;;;;;;4967988;28;20066;-54
2023/09/10 01:25:23;;;;;;;17.02;15.35;;;18.50;99.90;;;;;;4978020;28;20027;-54
2023/09/10 01:27:49;;;;;;;19.20;17.30;;;18.50;99.90;;;;;;4965766;28;20030;-51
2023/09/10 01:30:14;;;;;;;19.52;17.50;;;18.50;99.90;;;;;;4965415;28;20023;-55
2023/09/10 01:32:48;;;;;;;15.60;14.05;;;18.40;99.90;;;;;;4966870;28;20042;-51
2023/09/10 01:35:30;;;;;;;16.98;15.23;;;18.40;99.90;;;;;;4968357;28;20030;-54
2023/09/10 01:38:09;;;;;;;17.75;15.90;;;18.40;99.90;;;;;;4965450;28;20114;-51
2023/09/10 01:40:41;;;;;;;16.88;15.27;;;18.30;99.90;;;;;;4965224;28;20030;-51
2023/09/10 01:43:07;;;;;;;19.70;17.48;;;18.30;99.90;;;;;;4965454;28;20054;-50
2023/09/10 01:45:36;;;;;;;18.95;16.65;;;18.30;99.90;;;;;;4968493;28;20085;-53
2023/09/10 01:48:02;;;;;;;17.88;16.08;;;18.20;99.90;;;;;;4968173;28;20110;-52
2023/09/10 01:50:29;;;;;;;17.52;15.73;;;18.20;99.90;;;;;;4968048;28;20027;-50
2023/09/10 01:52:59;;;;;;;18.55;16.75;;;18.10;99.90;;;;;;4965614;28;20054;-55
2023/09/10 01:55:25;;;;;;;17.85;15.82;;;18.10;99.90;;;;;;4967768;28;20033;-51
2023/09/10 01:57:53;;;;;;;15.63;14.13;;;18.00;99.90;;;;;;4967604;28;20031;-53
2023/09/10 02:00:19;;;;;;;16.52;14.93;;;18.00;99.90;;;;;;4965266;28;20046;-52
2023/09/10 02:02:45;;;;;;;17.17;15.38;;;18.00;99.90;;;;;;4965544;28;20031;-55
2023/09/10 02:05:10;;;;;;;15.88;14.30;;;17.90;99.90;;;;;;4964785;28;20031;-50
2023/09/10 02:07:36;;;;;;;18.23;16.33;;;17.90;99.90;;;;;;4966616;28;20058;-53
2023/09/10 02:10:02;;;;;;;16.88;15.27;;;17.90;99.90;;;;;;4964153;28;20447;-50
2023/09/10 02:12:27;;;;;;;18.05;16.25;;;17.80;99.90;;;;;;4963224;28;20022;-56
2023/09/10 02:14:53;;;;;;;16.35;14.63;;;17.80;99.90;;;;;;4965090;28;20041;-55
2023/09/10 02:17:19;;;;;;;18.00;16.20;;;17.80;99.90;;;;;;4967208;28;20034;-50
2023/09/10 02:19:44;;;;;;;17.30;15.60;;;17.70;99.90;;;;;;4966590;28;20426;-50
2023/09/10 02:22:10;;;;;;;23.95;20.30;;;17.70;99.90;;;;;;4966670;28;20200;-52
2023/09/10 02:24:35;;;;;;;23.55;21.00;;;17.70;99.90;;;;;;4966522;28;20023;-53
2023/09/10 02:27:01;;;;;;;22.45;18.92;;;17.70;99.90;;;;;;4966546;28;20034;-53
2023/09/10 02:29:26;;;;;;;20.38;18.23;;;17.60;99.90;;;;;;4964672;28;20102;-52
2023/09/10 02:31:52;;;;;;;20.35;18.25;;;17.60;99.90;;;;;;4966432;28;20413;-54
2023/09/10 02:34:18;;;;;;;19.33;17.48;;;17.50;99.90;;;;;;4966575;28;20442;-54
2023/09/10 02:36:43;;;;;;;22.00;19.65;;;17.50;99.90;;;;;;4966791;28;20133;-58
2023/09/10 02:39:09;;;;;;;22.65;19.88;;;17.50;99.90;;;;;;4964198;28;20433;-50
2023/09/10 02:41:34;;;;;;;22.58;20.10;;;17.40;99.90;;;;;;4966440;28;20363;-52
2023/09/10 02:44:00;;;;;;;22.13;19.50;;;17.40;99.90;;;;;;4966430;28;20026;-52
2023/09/10 02:46:27;;;;;;;22.42;19.63;;;17.40;99.90;;;;;;4964813;28;20306;-52
2023/09/10 02:48:53;;;;;;;19.95;17.90;;;17.40;99.90;;;;;;4966481;28;20031;-51
2023/09/10 02:51:19;;;;;;;20.75;18.60;;;17.30;99.90;;;;;;4966153;28;20379;-50
2023/09/10 02:53:44;;;;;;;22.58;20.17;;;17.30;99.90;;;;;;4966926;28;20101;-50
2023/09/10 02:56:10;;;;;;;23.00;20.60;;;17.30;99.90;;;;;;4966525;28;20034;-51
2023/09/10 02:58:35;;;;;;;22.65;20.25;;;17.30;99.90;;;;;;4966196;28;20058;-50
2023/09/10 03:01:03;;;;;;;;;;;17.20;99.90;;;;;;4924016;28;1255942;-54
2023/09/10 03:03:28;;;;;;;20.08;18.02;;;17.20;99.90;;;;;;4967231;28;19910;-50
2023/09/10 03:05:54;;;;;;;19.85;17.85;;;17.20;99.90;;;;;;4966361;28;20093;-53
2023/09/10 03:08:19;;;;;;;18.45;16.63;;;17.20;99.90;;;;;;4965599;28;20090;-50
2023/09/10 03:10:45;;;;;;;19.02;16.95;;;17.10;99.90;;;;;;4966015;28;20027;-50
2023/09/10 03:13:10;;;;;;;18.45;16.50;;;17.10;99.90;;;;;;4966141;28;20021;-52
2023/09/10 03:15:36;;;;;;;20.30;18.05;;;17.10;99.90;;;;;;4965449;28;20399;-51
2023/09/10 03:18:02;;;;;;;22.17;19.98;;;17.10;99.90;;;;;;4966645;28;20023;-51
2023/09/10 03:20:27;;;;;;;22.27;19.98;;;17.10;99.90;;;;;;4966422;28;20026;-51
2023/09/10 03:22:57;;;;;;;20.02;17.98;;;17.00;99.90;;;;;;4965527;28;20019;-53
2023/09/10 03:25:23;;;;;;;21.00;18.90;;;17.00;99.90;;;;;;4964724;28;20143;-51
2023/09/10 03:27:49;;;;;;;22.40;20.02;;;17.00;99.90;;;;;;4966510;28;20763;-52
2023/09/10 03:30:16;;;;;;;25.38;22.77;;;17.00;99.90;;;;;;4963511;28;20049;-50
2023/09/10 03:32:42;;;;;;;26.85;22.73;;;17.00;99.90;;;;;;4966764;28;20113;-50
2023/09/10 03:35:08;;;;;;;26.73;22.08;;;17.00;99.90;;;;;;4966266;28;20126;-51
2023/09/10 03:37:33;;;;;;;23.73;20.52;;;17.00;99.90;;;;;;4966407;28;20109;-52
2023/09/10 03:39:59;;;;;;;28.65;23.92;;;17.00;99.90;;;;;;4965059;28;20035;-53
2023/09/10 03:42:24;;;;;;;28.52;24.13;;;17.00;99.90;;;;;;4966479;28;20367;-50
2023/09/10 03:44:50;;;;;;;24.10;21.50;;;17.00;99.90;;;;;;4966165;28;20033;-53
2023/09/10 03:47:15;;;;;;;37.20;32.03;;;17.00;99.90;;;;;;4965193;28;20034;-50
2023/09/10 03:49:41;;;;;;;43.13;34.35;;;17.00;99.90;;;;;;4964491;28;20070;-53
2023/09/10 03:52:18;;;;;;;45.50;37.75;;;17.10;99.90;;;;;;4966498;28;20029;-50
2023/09/10 03:54:44;;;;;;;49.63;39.05;;;17.10;99.90;;;;;;4966169;28;20038;-52
2023/09/10 03:57:10;;;;;;;54.50;39.22;;;17.10;99.90;;;;;;4966161;28;20502;-52
2023/09/10 03:59:35;;;;;;;45.80;37.97;;;17.10;99.90;;;;;;4966288;28;20026;-51
2023/09/10 04:02:01;;;;;;;55.58;41.45;;;17.10;99.90;;;;;;4966287;28;20367;-54
2023/09/10 04:04:27;;;;;;;55.67;42.50;;;17.10;99.90;;;;;;4965675;28;20527;-55
2023/09/10 04:06:53;;;;;;;47.83;39.88;;;17.00;99.90;;;;;;4966033;28;20027;-55
2023/09/10 04:09:18;;;;;;;51.20;42.20;;;17.00;99.90;;;;;;4965986;28;20034;-52
2023/09/10 04:11:44;;;;;;;47.45;39.90;;;17.00;99.90;;;;;;4966324;28;20529;-52
2023/09/10 04:14:10;;;;;;;48.83;40.03;;;17.00;99.90;;;;;;4966035;28;20038;-53
2023/09/10 04:16:35;;;;;;;51.63;40.35;;;17.00;99.90;;;;;;4963722;28;20026;-51
2023/09/10 04:19:01;;;;;;;47.17;40.88;;;16.90;99.90;;;;;;4967061;28;20027;-54
2023/09/10 04:21:26;;;;;;;53.75;42.45;;;16.90;99.90;;;;;;4965787;28;20402;-51
2023/09/10 04:23:52;;;;;;;45.20;38.47;;;16.80;99.90;;;;;;4967223;28;20091;-50
2023/09/10 04:26:18;;;;;;;54.00;40.42;;;16.80;99.90;;;;;;4967130;28;20054;-52
2023/09/10 04:28:43;;;;;;;45.70;39.88;;;16.70;99.90;;;;;;4968009;28;20041;-50
2023/09/10 04:31:13;;;;;;;46.85;40.30;;;16.70;99.90;;;;;;4969028;28;20650;-49
2023/09/10 04:33:38;;;;;;;47.40;41.08;;;16.70;99.90;;;;;;4952161;28;20041;-54
2023/09/10 04:36:04;;;;;;;45.63;38.70;;;16.70;99.90;;;;;;4968578;28;20034;-51
2023/09/10 04:38:30;;;;;;;43.15;38.55;;;16.60;99.90;;;;;;4969473;28;20065;-51
2023/09/10 04:40:55;;;;;;;47.20;37.88;;;16.60;99.90;;;;;;4967721;28;20023;-51
2023/09/10 04:43:22;;;;;;;46.15;39.13;;;16.60;99.90;;;;;;4967835;28;20117;-53
2023/09/10 04:45:47;;;;;;;46.85;39.70;;;16.70;99.90;;;;;;4969603;28;20157;-50
2023/09/10 04:48:13;;;;;;;45.85;38.85;;;16.60;99.90;;;;;;4967637;28;20117;-51
2023/09/10 04:50:40;;;;;;;51.45;40.63;;;16.70;99.90;;;;;;4968490;28;20030;-49
2023/09/10 04:53:05;;;;;;;46.13;37.30;;;16.70;99.90;;;;;;4968673;28;20026;-53
2023/09/10 04:55:31;;;;;;;42.92;33.70;;;16.70;99.90;;;;;;4967124;28;20039;-51
2023/09/10 04:57:56;;;;;;;40.17;34.80;;;16.70;99.90;;;;;;4968328;28;20113;-51
2023/09/10 05:00:22;;;;;;;44.13;37.03;;;16.70;99.90;;;;;;4967126;28;20189;-54
2023/09/10 05:02:50;;;;;;;43.85;36.90;;;16.70;99.90;;;;;;4968452;28;20042;-50
2023/09/10 05:05:16;;;;;;;40.28;33.53;;;16.70;99.90;;;;;;4965620;28;20019;-53
2023/09/10 05:07:48;;;;;;;44.83;35.08;;;16.70;99.90;;;;;;4967080;28;20446;-51
2023/09/10 05:10:14;;;;;;;50.28;38.78;;;16.70;99.90;;;;;;4967595;28;20126;-51
2023/09/10 05:12:40;;;;;;;49.63;39.70;;;16.70;99.90;;;;;;4966822;28;20170;-53
2023/09/10 05:15:06;;;;;;;52.20;39.63;;;16.70;99.90;;;;;;4966071;28;20039;-51
2023/09/10 05:17:32;;;;;;;51.70;40.30;;;16.70;99.90;;;;;;4968384;28;20662;-54
2023/09/10 05:19:57;;;;;;;49.28;37.33;;;16.70;99.90;;;;;;4967536;28;20035;-51
2023/09/10 05:22:23;;;;;;;55.67;42.08;;;16.70;99.90;;;;;;4967811;28;20069;-51
2023/09/10 05:24:49;;;;;;;52.72;39.40;;;16.80;99.90;;;;;;4963617;28;20059;-54
2023/09/10 05:27:14;;;;;;;52.30;37.85;;;16.80;99.90;;;;;;4966036;28;20113;-53
2023/09/10 05:29:40;;;;;;;54.78;39.50;;;16.70;99.90;;;;;;4965994;28;20131;-54
2023/09/10 05:32:05;;;;;;;60.72;40.28;;;16.80;99.90;;;;;;4968018;28;20392;-52
2023/09/10 05:34:31;;;;;;;60.15;41.15;;;16.80;99.90;;;;;;4966217;28;20101;-52
2023/09/10 05:36:56;;;;;;;57.65;38.90;;;16.80;99.90;;;;;;4967274;28;20031;-50
2023/09/10 05:39:22;;;;;;;71.75;43.05;;;16.80;99.90;;;;;;4966961;28;20045;-50
2023/09/10 05:41:48;;;;;;;68.75;41.40;;;16.80;99.90;;;;;;4967743;28;20027;-51
2023/09/10 05:44:13;;;;;;;72.53;44.13;;;16.80;99.90;;;;;;4966811;28;20105;-53
2023/09/10 05:46:39;;;;;;;62.00;41.78;;;16.90;99.90;;;;;;4966325;28;20027;-50
2023/09/10 05:49:05;;;;;;;76.90;44.30;;;16.90;99.90;;;;;;4967098;28;20035;-52
2023/09/10 05:51:31;;;;;;;64.85;39.47;;;16.90;99.90;;;;;;4967154;28;20046;-53
2023/09/10 05:53:56;;;;;;;71.40;43.17;;;16.90;99.90;;;;;;4967025;28;20034;-50
2023/09/10 05:56:22;;;;;;;77.97;46.20;;;16.90;99.90;;;;;;4966345;28;20027;-50
2023/09/10 05:58:48;;;;;;;84.55;47.22;;;16.90;99.90;;;;;;4966131;28;20073;-52
2023/09/10 06:01:14;;;;;;;83.85;47.53;;;16.90;99.90;;;;;;4964877;28;20085;-50
2023/09/10 06:03:39;;;;;;;91.07;47.63;;;16.90;99.90;;;;;;4965808;28;20034;-50
2023/09/10 06:06:05;;;;;;;84.05;48.80;;;16.90;99.90;;;;;;4966614;28;20026;-50
2023/09/10 06:08:31;;;;;;;79.85;46.67;;;17.00;99.90;;;;;;4966734;28;20039;-50
2023/09/10 06:10:56;;;;;;;79.60;42.72;;;17.00;99.90;;;;;;4966193;28;20043;-52
2023/09/10 06:13:22;;;;;;;71.03;44.80;;;17.00;99.90;;;;;;4965241;28;20077;-51
2023/09/10 06:15:48;;;;;;;71.75;40.28;;;17.10;99.90;;;;;;4967121;28;20027;-51
2023/09/10 06:18:15;;;;;;;76.32;43.40;;;17.00;99.90;;;;;;4965392;28;20081;-51
2023/09/10 06:20:40;;;;;;;75.78;43.40;;;17.10;99.90;;;;;;4981498;28;20062;-51
2023/09/10 06:23:06;;;;;;;72.55;41.30;;;17.10;99.90;;;;;;4967502;28;20062;-50
2023/09/10 06:25:33;;;;;;;67.47;42.55;;;17.10;99.90;;;;;;4966407;28;20043;-51
2023/09/10 06:27:58;;;;;;;63.70;37.72;;;17.20;99.90;;;;;;4967502;28;20018;-52
2023/09/10 06:30:24;;;;;;;68.30;38.08;;;17.20;99.90;;;;;;4965702;28;20022;-54
2023/09/10 06:32:50;;;;;;;75.10;41.65;;;17.20;99.90;;;;;;4965214;28;20080;-52
2023/09/10 06:35:15;;;;;;;70.05;40.22;;;17.20;99.90;;;;;;4965453;28;20474;-51
2023/09/10 06:37:42;;;;;;;71.78;40.90;;;17.20;99.90;;;;;;4966702;28;20577;-53
2023/09/10 06:40:09;;;;;;;66.93;39.60;;;17.30;99.90;;;;;;4965330;28;20041;-51
2023/09/10 06:42:34;;;;;;;62.67;37.15;;;17.30;99.90;;;;;;4966373;28;20121;-53
2023/09/10 06:45:00;;;;;;;62.63;37.00;;;17.30;99.90;;;;;;4966978;28;20110;-54
2023/09/10 06:47:27;;;;;;;74.82;39.08;;;17.30;99.90;;;;;;4965222;28;20069;-54
2023/09/10 06:49:52;;;;;;;63.00;36.80;;;17.30;99.90;;;;;;4966911;28;20077;-53
2023/09/10 06:52:18;;;;;;;72.80;40.95;;;17.30;99.90;;;;;;4966682;28;20413;-54
2023/09/10 06:54:44;;;;;;;68.82;40.00;;;17.30;99.90;;;;;;4965771;28;20082;-52
2023/09/10 06:57:09;;;;;;;71.10;41.30;;;17.20;99.90;;;;;;4963665;28;20571;-52
2023/09/10 06:59:35;;;;;;;66.95;37.97;;;17.20;99.90;;;;;;4966480;28;20158;-50
2023/09/10 07:02:00;;;;;;;65.18;36.13;;;17.10;99.90;;;;;;4966557;28;20077;-53
2023/09/10 07:04:26;;;;;;;75.75;41.72;;;17.10;99.90;;;;;;4966301;28;20027;-50
2023/09/10 07:06:52;;;;;;;77.32;39.60;;;17.10;99.90;;;;;;4964386;28;20054;-50
2023/09/10 07:09:22;;;;;;;65.57;38.30;;;17.10;99.90;;;;;;4976963;28;20065;-53
2023/09/10 07:11:52;;;;;;;72.97;38.95;;;17.10;99.90;;;;;;4962141;28;20118;-50
2023/09/10 07:14:19;;;;;;;58.70;36.58;;;17.10;99.90;;;;;;4964924;28;20470;-51
2023/09/10 07:16:45;;;;;;;68.40;38.90;;;17.20;99.90;;;;;;4966255;28;20031;-51
2023/09/10 07:19:11;;;;;;;70.28;39.28;;;17.20;99.90;;;;;;4965737;28;20023;-51
2023/09/10 07:21:38;;;;;;;67.55;37.53;;;17.30;99.90;;;;;;4965902;28;20114;-55
2023/09/10 07:24:06;;;;;;;69.10;38.47;;;17.30;99.90;;;;;;4966269;28;20029;-54
2023/09/10 07:26:32;;;;;;;57.58;32.85;;;17.30;99.90;;;;;;4966429;28;20027;-50
2023/09/10 07:28:58;;;;;;;60.15;34.72;;;17.40;99.90;;;;;;4965842;28;20250;-51
2023/09/10 07:31:24;;;;;;;61.38;34.25;;;17.40;99.90;;;;;;4963707;28;20066;-51
2023/09/10 07:33:49;;;;;;;61.13;34.67;;;17.40;99.90;;;;;;4966198;28;20722;-54
2023/09/10 07:36:15;;;;;;;59.50;35.22;;;17.40;99.90;;;;;;4966153;28;20030;-53
2023/09/10 07:38:40;;;;;;;53.58;33.30;;;17.50;99.90;;;;;;4966287;28;20034;-52
2023/09/10 07:41:06;;;;;;;56.17;34.88;;;17.50;99.90;;;;;;4965611;28;20055;-55
2023/09/10 07:43:31;;;;;;;62.95;36.03;;;17.40;99.90;;;;;;4966160;28;20034;-54
2023/09/10 07:45:57;;;;;;;55.20;33.22;;;17.50;99.90;;;;;;4964436;28;20031;-51
2023/09/10 07:48:23;;;;;;;59.90;34.08;;;17.30;99.90;;;;;;4965994;28;20053;-52
2023/09/10 07:50:56;;;;;;;53.97;33.80;;;17.40;99.90;;;;;;4965953;28;20105;-50
2023/09/10 07:53:21;;;;;;;55.85;33.90;;;17.40;99.90;;;;;;4965974;28;20144;-56
2023/09/10 07:55:48;;;;;;;56.42;36.13;;;17.40;99.90;;;;;;4963119;28;20171;-54
2023/09/10 07:58:13;;;;;;;52.13;32.38;;;17.40;99.90;;;;;;4967230;28;20031;-54
2023/09/10 08:00:40;;;;;;;51.63;31.75;;;17.50;99.90;;;;;;5004952;22;20053;-57
2023/09/10 08:03:06;;;;;;;45.55;31.77;;;17.40;99.90;;;;;;5024136;28;20033;-54
2023/09/10 08:05:33;;;;;;;48.20;29.35;;;17.30;99.90;;;;;;5021969;28;20029;-54
2023/09/10 08:08:02;;;;;;;48.67;30.08;;;17.30;99.90;;;;;;5028340;28;20108;-57
2023/09/10 08:10:29;;;;;;;46.10;28.20;;;17.30;99.90;;;;;;5015206;28;20034;-57
2023/09/10 08:12:55;;;;;;;46.28;27.98;;;17.40;99.90;;;;;;5005918;28;20144;-56
2023/09/10 08:15:20;;;;;;;44.40;28.35;;;17.40;99.90;;;;;;5002772;28;21071;-59
2023/09/10 08:17:47;;;;;;;42.67;25.73;;;17.40;99.90;;;;;;5006447;28;20022;-58
2023/09/10 08:20:13;;;;;;;44.17;29.50;;;17.40;99.90;;;;;;5002213;28;20516;-57
2023/09/10 08:22:38;;;;;;;44.95;30.13;;;17.50;99.90;;;;;;5006244;28;20111;-59
2023/09/10 08:25:07;;;;;;;50.15;29.67;;;17.50;99.90;;;;;;5004613;28;20022;-55
2023/09/10 08:27:35;;;;;;;49.60;29.42;;;17.50;99.90;;;;;;5004552;28;20371;-58
2023/09/10 08:30:05;;;;;;;44.10;26.70;;;17.60;99.90;;;;;;5003248;28;20030;-60
2023/09/10 08:32:31;;;;;;;49.42;29.33;;;17.70;99.90;;;;;;5003661;28;20034;-57
2023/09/10 08:34:58;;;;;;;45.97;28.23;;;17.70;99.90;;;;;;5004273;28;20026;-56
2023/09/10 08:37:23;;;;;;;45.03;28.63;;;17.80;99.90;;;;;;5000032;28;20157;-55
2023/09/10 08:39:49;;;;;;;38.78;25.15;;;17.70;99.90;;;;;;5007825;28;20045;-59
2023/09/10 08:42:47;;;;;;;42.05;26.67;;;17.80;99.90;;;;;;5003886;28;20014;-57
2023/09/10 08:45:13;;;;;;;42.50;27.38;;;17.90;99.90;;;;;;5000616;28;20042;-58
2023/09/10 08:47:43;;;;;;;47.60;28.73;;;18.00;99.90;;;;;;5004138;28;20023;-57
2023/09/10 08:50:11;;;;;;;41.63;24.88;;;18.00;99.90;;;;;;5004113;28;20022;-59
2023/09/10 08:52:44;;;;;;;47.58;27.85;;;18.00;99.90;;;;;;5006207;28;20122;-58
2023/09/10 08:55:11;;;;;;;42.00;26.40;;;18.00;99.90;;;;;;5004663;28;20383;-61
2023/09/10 08:57:39;;;;;;;40.67;25.85;;;18.10;99.90;;;;;;5005219;28;20087;-59
2023/09/10 09:00:12;;;;;;;43.17;27.20;;;18.10;99.90;;;;;;5002970;28;20022;-58
2023/09/10 09:02:39;;;;;;;39.97;25.70;;;18.10;99.90;;;;;;5003431;28;20054;-58
2023/09/10 09:05:05;;;;;;;44.40;25.83;;;18.20;99.90;;;;;;5002741;28;20017;-55
2023/09/10 09:07:39;;;;;;;40.40;26.55;;;18.30;99.90;;;;;;5004414;28;20053;-60
2023/09/10 09:10:08;;;;;;;39.00;24.45;;;18.30;99.90;;;;;;5006189;28;20022;-60
2023/09/10 09:12:35;;;;;;;39.03;26.48;;;18.30;99.90;;;;;;5001637;28;20040;-57
2023/09/10 09:15:02;;;;;;;40.58;25.75;;;18.40;99.90;;;;;;5004899;28;20033;-59
2023/09/10 09:17:29;;;;;;;45.45;27.10;;;18.50;99.90;;;;;;5004559;28;20025;-56
2023/09/10 09:19:57;;;;;;;43.38;26.67;;;18.50;99.90;;;;;;5003674;28;20030;-59
2023/09/10 09:22:28;;;;;;;45.00;26.80;;;18.60;99.90;;;;;;5000031;28;20018;-59
2023/09/10 09:24:55;;;;;;;42.55;27.85;;;18.60;99.90;;;;;;5004583;28;20026;-59
2023/09/10 09:27:23;;;;;;;47.03;27.42;;;18.60;99.90;;;;;;5005482;28;20244;-58
2023/09/10 09:29:50;;;;;;;40.00;24.30;;;18.50;99.90;;;;;;4984837;28;20023;-59
2023/09/10 09:32:16;;;;;;;44.33;27.48;;;18.60;99.90;;;;;;5003141;28;20022;-57
2023/09/10 09:34:41;;;;;;;40.70;26.30;;;18.70;99.90;;;;;;5002363;28;20837;-56
2023/09/10 09:37:07;;;;;;;49.15;28.38;;;18.90;99.90;;;;;;4999074;28;20025;-58
2023/09/10 09:39:33;;;;;;;43.08;26.17;;;19.00;99.90;;;;;;5004235;28;20041;-58
2023/09/10 09:41:58;;;;;;;51.92;28.63;;;19.00;99.90;;;;;;5004299;28;20025;-59
2023/09/10 09:44:24;;;;;;;50.95;27.05;;;19.10;99.90;;;;;;5004591;28;20018;-59
2023/09/10 09:46:50;;;;;;;47.33;26.80;;;19.20;99.90;;;;;;5005639;28;20128;-59
2023/09/10 09:49:16;;;;;;;49.42;27.63;;;19.20;99.90;;;;;;5005173;28;20026;-56
2023/09/10 09:51:43;;;;;;;47.17;26.73;;;19.20;99.90;;;;;;5004781;28;20808;-58
2023/09/10 09:54:09;;;;;;;44.25;26.77;;;19.40;99.90;;;;;;5005232;28;20033;-58
2023/09/10 09:56:37;;;;;;;48.47;26.27;;;19.40;99.90;;;;;;5004417;28;20253;-57
2023/09/10 09:59:03;;;;;;;49.42;25.58;;;19.50;99.90;;;;;;5004412;28;20164;-56
2023/09/10 10:01:29;;;;;;;51.53;27.98;;;19.60;99.90;;;;;;5001609;28;20113;-58
2023/09/10 10:03:56;;;;;;;50.22;27.30;;;19.70;99.90;;;;;;5005877;28;20033;-56
2023/09/10 10:06:22;;;;;;;47.55;27.00;;;19.80;99.90;;;;;;5005868;28;20049;-59
2023/09/10 10:08:49;;;;;;;55.08;30.25;;;19.80;99.90;;;;;;5003864;28;20026;-59
2023/09/10 10:11:36;;;;;;;50.42;28.63;;;19.80;99.90;;;;;;5002680;28;20048;-58
2023/09/10 10:14:02;;;;;;;;;;;19.90;99.90;;;;;;5006115;28;20150;-59
2023/09/10 10:16:29;;;;;;;52.92;28.85;;;19.80;99.90;;;;;;5003648;28;19932;-56
2023/09/10 10:18:55;;;;;;;45.58;25.75;;;19.90;99.90;;;;;;5005573;28;20076;-58
2023/09/10 10:21:24;;;;;;;51.85;27.92;;;19.90;99.90;;;;;;5003633;28;20029;-57
2023/09/10 10:23:52;;;;;;;53.67;28.63;;;20.00;99.90;;;;;;5002824;28;20064;-58
2023/09/10 10:26:18;;;;;;;47.05;25.40;;;20.00;99.90;;;;;;4999906;28;20022;-56
2023/09/10 10:28:46;;;;;;;53.92;29.20;;;20.10;99.90;;;;;;5005046;28;20026;-59
2023/09/10 10:31:15;;;;;;;52.47;27.67;;;20.20;99.90;;;;;;5005188;28;20018;-59
2023/09/10 10:34:02;;;;;;;57.60;30.35;;;20.20;99.90;;;;;;5005354;28;20917;-59
2023/09/10 10:37:08;;;;;;;52.75;27.70;;;20.30;99.90;;;;;;5001147;28;20105;-59
2023/09/10 10:40:08;;;;;;;55.90;29.05;;;20.30;99.90;;;;;;5002284;28;20022;-58
2023/09/10 10:42:58;;;;;;;54.47;27.85;;;20.40;99.90;;;;;;5003892;28;20060;-57
2023/09/10 10:45:25;;;;;;;52.90;29.17;;;20.50;99.90;;;;;;5003657;28;20037;-57
2023/09/10 10:47:51;;;;;;;55.33;27.60;;;20.60;99.90;;;;;;5005160;28;20137;-58
2023/09/10 10:50:24;;;;;;;50.50;27.77;;;20.60;99.90;;;;;;5004226;28;20033;-58
2023/09/10 10:53:04;;;;;;;56.90;30.45;;;20.60;99.90;;;;;;5003770;28;20026;-58
2023/09/10 10:55:32;;;;;;;46.90;26.83;;;20.70;99.90;;;;;;4998650;28;20042;-56
2023/09/10 10:57:58;;;;;;;54.97;30.20;;;20.70;99.90;;;;;;5005363;28;20017;-59
2023/09/10 11:00:24;;;;;;;48.10;26.58;;;20.80;99.90;;;;;;5003405;28;20049;-59
2023/09/10 11:03:15;;;;;;;45.25;26.50;;;20.80;99.90;;;;;;5004416;28;20041;-58
2023/09/10 11:05:53;;;;;;;49.20;26.15;;;20.90;99.90;;;;;;4999575;28;20134;-59
2023/09/10 11:08:39;;;;;;;50.10;28.70;;;21.00;99.90;;;;;;5001820;28;20627;-59
2023/09/10 11:11:08;;;;;;;49.20;27.05;;;21.00;99.90;;;;;;5001276;28;20165;-57
2023/09/10 11:13:33;;;;;;;45.42;25.17;;;21.00;99.90;;;;;;5003097;28;20038;-59
2023/09/10 11:16:05;;;;;;;46.60;25.45;;;21.10;99.90;;;;;;5004753;28;20482;-59
2023/09/10 11:18:37;;;;;;;44.72;24.75;;;21.20;99.90;;;;;;5004504;28;20079;-57
2023/09/10 11:21:04;;;;;;;40.60;23.98;;;21.20;99.90;;;;;;5003699;28;20028;-59
2023/09/10 11:23:33;;;;;;;44.15;23.42;;;21.20;99.90;;;;;;5004672;28;20054;-59
2023/09/10 11:26:14;;;;;;;42.45;25.38;;;21.30;99.90;;;;;;5001094;28;20026;-59
2023/09/10 11:29:09;;;;;;;39.45;24.05;;;21.40;99.90;;;;;;5004472;28;20054;-59
2023/09/10 11:31:38;;;;;;;37.42;22.42;;;21.40;99.90;;;;;;4992410;28;20034;-58
2023/09/10 11:34:16;;;;;;;39.13;24.65;;;21.50;99.90;;;;;;5009333;28;20460;-57
2023/09/10 11:36:44;;;;;;;44.70;26.38;;;21.60;99.90;;;;;;5008346;28;20013;-58
2023/09/10 11:39:11;;;;;;;43.80;25.20;;;21.70;99.90;;;;;;5003373;28;20161;-58
2023/09/10 11:41:36;;;;;;;41.90;26.45;;;21.70;99.90;;;;;;5004828;28;20028;-59
2023/09/10 11:44:02;;;;;;;35.28;22.25;;;21.70;99.90;;;;;;5005650;28;20030;-59
2023/09/10 11:46:27;;;;;;;38.53;24.63;;;21.70;99.90;;;;;;5008400;28;20021;-56
2023/09/10 11:48:53;;;;;;;40.88;24.58;;;21.80;99.90;;;;;;5000505;28;20101;-58
2023/09/10 11:51:18;;;;;;;37.75;23.77;;;21.90;99.90;;;;;;5006137;28;20493;-61
2023/09/10 11:53:44;;;;;;;35.92;23.80;;;22.00;99.90;;;;;;5004602;28;20511;-60
2023/09/10 11:56:11;;;;;;;39.58;25.02;;;22.00;99.90;;;;;;5001110;28;20038;-58
2023/09/10 11:58:37;;;;;;;38.28;24.90;;;22.10;99.90;;;;;;5005026;28;20053;-60
2023/09/10 12:01:03;;;;;;;34.55;22.70;;;22.10;99.90;;;;;;4997847;28;20034;-58
2023/09/10 12:03:32;;;;;;;36.83;24.65;;;22.10;99.90;;;;;;5002383;28;20076;-59
2023/09/10 12:05:58;;;;;;;38.00;24.58;;;22.20;99.90;;;;;;5000038;28;20035;-60
2023/09/10 12:08:24;;;;;;;39.42;26.27;;;22.30;99.90;;;;;;5003885;28;20590;-60
2023/09/10 12:10:52;;;;;;;40.10;24.55;;;22.30;99.90;;;;;;4999462;28;20029;-59
2023/09/10 12:13:18;;;;;;;36.50;25.27;;;22.40;99.90;;;;;;5006548;28;20025;-59
2023/09/10 12:15:44;;;;;;;36.88;22.77;;;22.50;99.90;;;;;;4998103;28;20022;-58
2023/09/10 12:18:09;;;;;;;34.70;24.00;;;22.50;99.90;;;;;;5001833;28;20097;-59
2023/09/10 12:20:36;;;;;;;37.47;25.02;;;22.60;99.90;;;;;;5001010;28;20101;-58
2023/09/10 12:23:03;;;;;;;32.63;23.02;;;22.70;99.90;;;;;;4996725;28;20022;-57
2023/09/10 12:25:28;;;;;;;35.55;23.42;;;22.70;99.90;;;;;;5002423;28;20043;-60
2023/09/10 12:27:55;;;;;;;30.55;21.98;;;22.80;99.90;;;;;;4995902;28;20097;-59
2023/09/10 12:30:20;;;;;;;32.90;23.35;;;22.80;99.90;;;;;;5005249;28;20584;-58